Time;durP1;ratioP1;P1;durP2;ratioP2;P2;SDS_P1;SDS_P2;PMS_P1;PMS_P2;Temp;Humidity;BMP_temperature;BMP_pressure;BME280_temperature;BME280_humidity;BME280_pressure;Samples;Min_cycle;Max_cycle;Signal;HPM_P1;HPM_P2
2022/08/27 00:01:05;;;;;;;40.88;29.58;;;18.90;56.30;;;;;;7361432;19;20037;-66
2022/08/27 00:03:40;;;;;;;37.60;29.33;;;19.00;56.70;;;;;;7363087;19;20604;-66
2022/08/27 00:06:10;;;;;;;39.50;28.75;;;18.90;56.60;;;;;;7359885;19;20010;-66
2022/08/27 00:08:40;;;;;;;45.75;31.77;;;19.00;56.80;;;;;;7386180;19;20028;-66
2022/08/27 00:11:10;;;;;;;41.30;31.23;;;18.90;56.80;;;;;;7360935;19;20017;-66
2022/08/27 00:13:41;;;;;;;42.83;30.85;;;18.90;57.30;;;;;;7362730;19;20017;-66
2022/08/27 00:16:15;;;;;;;47.40;31.83;;;18.90;57.10;;;;;;7359138;19;20010;-66
2022/08/27 00:18:46;;;;;;;42.47;31.42;;;18.90;56.70;;;;;;7365046;19;20424;-66
2022/08/27 00:21:17;;;;;;;40.95;29.48;;;18.90;56.70;;;;;;7368029;19;20014;-66
2022/08/27 00:23:47;;;;;;;40.13;30.30;;;18.90;56.00;;;;;;7366911;19;20029;-66
2022/08/27 00:26:17;;;;;;;37.53;27.58;;;18.90;55.80;;;;;;7388264;19;20017;-66
2022/08/27 00:28:47;;;;;;;40.30;28.58;;;18.90;56.40;;;;;;7371264;19;20014;-66
2022/08/27 00:31:20;;;;;;;38.42;28.25;;;18.90;55.60;;;;;;7367461;19;20007;-66
2022/08/27 00:33:56;;;;;;;38.80;28.17;;;18.90;56.40;;;;;;7368862;19;20110;-66
2022/08/27 00:36:26;;;;;;;36.33;27.90;;;18.90;54.40;;;;;;7366306;19;20478;-65
2022/08/27 00:38:56;;;;;;;40.17;28.63;;;18.90;54.60;;;;;;7371340;19;20086;-65
2022/08/27 00:41:26;;;;;;;34.17;28.98;;;18.90;53.40;;;;;;7388871;19;20351;-65
2022/08/27 00:43:58;;;;;;;39.22;27.98;;;18.90;53.80;;;;;;7368060;19;20012;-65
2022/08/27 00:46:37;;;;;;;41.13;29.73;;;18.90;53.60;;;;;;7365284;19;20009;-65
2022/08/27 00:49:11;;;;;;;37.00;27.67;;;18.90;53.40;;;;;;7371404;19;20006;-65
2022/08/27 00:51:42;;;;;;;36.85;28.58;;;18.80;54.20;;;;;;7367898;19;20070;-65
2022/08/27 00:54:12;;;;;;;42.22;29.70;;;18.90;54.30;;;;;;7368039;19;20010;-65
2022/08/27 00:56:47;;;;;;;40.15;29.15;;;18.90;54.10;;;;;;7364483;19;20011;-65
2022/08/27 00:59:24;;;;;;;41.95;30.00;;;18.80;54.20;;;;;;7391920;19;20015;-65
2022/08/27 01:04:42;;;;;;;41.28;30.15;;;18.90;54.80;;;;;;7367424;19;20056;-65
2022/08/27 01:07:13;;;;;;;39.28;30.98;;;18.90;54.70;;;;;;7365716;19;20023;-65
2022/08/27 01:09:44;;;;;;;36.15;28.80;;;18.90;54.10;;;;;;7369249;19;20504;-66
2022/08/27 01:12:14;;;;;;;37.60;28.65;;;18.90;54.80;;;;;;7367511;19;20351;-67
2022/08/27 01:14:46;;;;;;;39.58;30.48;;;18.90;54.70;;;;;;7375183;19;20081;-65
2022/08/27 01:17:19;;;;;;;37.03;29.55;;;18.90;54.20;;;;;;7384667;19;20017;-65
2022/08/27 01:19:52;;;;;;;43.20;30.17;;;19.00;54.70;;;;;;7367360;19;20074;-66
2022/08/27 01:22:32;;;;;;;36.45;29.33;;;19.00;54.00;;;;;;7366245;19;20002;-65
2022/08/27 01:25:09;;;;;;;40.08;29.70;;;19.00;54.30;;;;;;7368195;19;20017;-65
2022/08/27 01:27:40;;;;;;;42.45;31.27;;;19.00;53.50;;;;;;7364257;19;20292;-66
2022/08/27 01:30:13;;;;;;;38.95;29.88;;;19.00;53.90;;;;;;7364409;19;20014;-65
2022/08/27 01:32:45;;;;;;;40.28;30.88;;;19.00;54.10;;;;;;7384393;19;20100;-66
2022/08/27 01:35:17;;;;;;;42.17;32.20;;;19.00;53.40;;;;;;7389633;19;20010;-65
2022/08/27 01:37:50;;;;;;;48.10;32.70;;;19.00;54.00;;;;;;7363185;19;20086;-66
2022/08/27 01:40:24;;;;;;;47.17;32.47;;;19.10;53.60;;;;;;7365034;19;20010;-66
2022/08/27 01:42:56;;;;;;;42.40;32.05;;;19.00;53.10;;;;;;7367970;19;20479;-66
2022/08/27 01:45:30;;;;;;;45.65;33.70;;;19.00;53.40;;;;;;7367408;19;20011;-66
2022/08/27 01:48:00;;;;;;;45.05;33.67;;;19.10;53.50;;;;;;7368102;19;20006;-66
2022/08/27 01:50:34;;;;;;;43.03;32.83;;;19.20;53.60;;;;;;7389815;19;20223;-66
2022/08/27 01:53:06;;;;;;;43.15;33.75;;;19.20;53.50;;;;;;7367527;19;20030;-66
2022/08/27 01:55:40;;;;;;;46.83;34.38;;;19.10;52.40;;;;;;7368647;19;20003;-66
2022/08/27 01:58:16;;;;;;;48.28;34.42;;;19.00;52.60;;;;;;7366155;19;20081;-66
2022/08/27 02:00:50;;;;;;;48.05;35.45;;;18.90;52.70;;;;;;7365321;19;20007;-66
2022/08/27 02:03:26;;;;;;;44.25;34.40;;;19.00;54.80;;;;;;7367439;19;20044;-65
2022/08/27 02:05:56;;;;;;;49.78;35.70;;;18.90;54.30;;;;;;7367787;19;20010;-65
2022/08/27 02:08:25;;;;;;;48.67;34.85;;;19.00;54.50;;;;;;7386776;19;20078;-65
2022/08/27 02:10:58;;;;;;;47.72;34.17;;;19.00;54.70;;;;;;7364740;19;20018;-66
2022/08/27 02:13:28;;;;;;;50.15;34.92;;;19.00;55.30;;;;;;7367343;19;20015;-65
2022/08/27 02:15:58;;;;;;;48.05;35.38;;;18.90;54.50;;;;;;7366685;19;20024;-65
2022/08/27 02:18:28;;;;;;;49.03;35.25;;;18.90;54.50;;;;;;7362508;19;20025;-65
2022/08/27 02:20:58;;;;;;;45.30;34.80;;;18.90;55.00;;;;;;7365000;19;20010;-65
2022/08/27 02:23:28;;;;;;;43.20;33.65;;;18.90;55.50;;;;;;7388098;19;20014;-66
2022/08/27 02:26:00;;;;;;;47.50;35.08;;;18.90;55.20;;;;;;7367474;19;20013;-66
2022/08/27 02:28:30;;;;;;;45.28;34.17;;;18.90;54.60;;;;;;7364265;19;20027;-66
2022/08/27 02:31:00;;;;;;;45.22;34.15;;;18.90;54.40;;;;;;7363516;19;20017;-66
2022/08/27 02:33:31;;;;;;;47.28;34.25;;;18.80;55.00;;;;;;7366693;19;20216;-66
2022/08/27 02:36:02;;;;;;;48.42;33.92;;;18.80;55.50;;;;;;7367517;19;20699;-66
2022/08/27 02:38:32;;;;;;;48.78;35.33;;;18.80;55.50;;;;;;7384139;19;20019;-66
2022/08/27 02:41:05;;;;;;;46.63;34.83;;;18.80;55.80;;;;;;7363678;19;20081;-66
2022/08/27 02:43:35;;;;;;;44.67;33.65;;;18.80;55.20;;;;;;7365689;19;20335;-66
2022/08/27 02:46:05;;;;;;;44.05;34.35;;;18.70;55.80;;;;;;7367265;19;20022;-66
2022/08/27 02:48:37;;;;;;;44.13;33.72;;;18.80;56.70;;;;;;7365887;19;20011;-66
2022/08/27 02:51:08;;;;;;;44.33;33.05;;;18.80;55.90;;;;;;7363654;19;20438;-65
2022/08/27 02:53:39;;;;;;;44.55;34.50;;;18.80;55.30;;;;;;7388348;19;20104;-66
2022/08/27 02:56:11;;;;;;;47.17;33.95;;;18.80;56.00;;;;;;7364336;19;20020;-66
2022/08/27 02:58:42;;;;;;;43.17;32.77;;;18.80;55.70;;;;;;7364841;19;20014;-66
2022/08/27 03:01:12;;;;;;;40.35;30.40;;;18.80;56.40;;;;;;7363346;19;20013;-66
2022/08/27 03:03:43;;;;;;;41.85;31.70;;;18.70;55.70;;;;;;7365625;19;20463;-66
2022/08/27 03:06:13;;;;;;;43.65;32.65;;;18.70;55.80;;;;;;7362253;19;20011;-66
2022/08/27 03:08:43;;;;;;;39.22;29.65;;;18.80;56.70;;;;;;7386018;19;20045;-67
2022/08/27 03:11:25;;;;;;;39.72;31.30;;;18.70;54.80;;;;;;7384468;19;20674;-66
2022/08/27 03:13:55;;;;;;;41.03;28.52;;;18.60;54.10;;;;;;7364688;19;20081;-66
2022/08/27 03:16:25;;;;;;;39.15;28.77;;;18.60;54.50;;;;;;7359965;19;20010;-66
2022/08/27 03:18:52;;;;;;;38.47;27.52;;;18.60;54.50;;;;;;7366273;19;20480;-66
2022/08/27 03:21:26;;;;;;;35.38;27.33;;;18.60;53.70;;;;;;7363160;19;20090;-66
2022/08/27 03:23:56;;;;;;;36.63;28.23;;;18.60;54.30;;;;;;7365916;19;20379;-66
2022/08/27 03:26:28;;;;;;;33.72;26.63;;;18.50;53.40;;;;;;7381324;19;20463;-66
2022/08/27 03:28:59;;;;;;;34.58;26.48;;;18.50;53.00;;;;;;7365976;19;20010;-66
2022/08/27 03:31:30;;;;;;;36.45;26.42;;;18.50;52.90;;;;;;7361438;19;20008;-66
2022/08/27 03:34:02;;;;;;;34.60;25.45;;;18.50;52.90;;;;;;7365256;19;20017;-66
2022/08/27 03:36:32;;;;;;;32.80;25.20;;;18.40;52.40;;;;;;7360175;19;20398;-65
2022/08/27 03:39:02;;;;;;;33.47;25.52;;;18.40;52.90;;;;;;7365592;19;20010;-65
2022/08/27 03:41:34;;;;;;;38.28;28.10;;;18.40;53.40;;;;;;7384632;19;20015;-65
2022/08/27 03:44:23;;;;;;;39.83;29.38;;;18.50;54.40;;;;;;7363916;19;20021;-65
2022/08/27 03:46:54;;;;;;;37.72;28.17;;;18.40;53.10;;;;;;7358791;19;20352;-65
2022/08/27 03:49:24;;;;;;;40.85;29.02;;;18.30;52.90;;;;;;7365492;19;20021;-65
2022/08/27 03:51:56;;;;;;;42.15;31.00;;;18.40;54.00;;;;;;7361714;19;20080;-65
2022/08/27 03:54:26;;;;;;;44.67;31.33;;;18.40;54.90;;;;;;7367945;19;20557;-65
2022/08/27 03:56:58;;;;;;;48.08;30.90;;;18.30;55.30;;;;;;7365920;19;20402;-66
2022/08/27 03:59:28;;;;;;;48.85;32.03;;;18.40;55.40;;;;;;7392956;19;20017;-65
2022/08/27 04:01:58;;;;;;;47.03;32.05;;;18.40;55.10;;;;;;7369243;19;20022;-65
2022/08/27 04:04:29;;;;;;;53.28;34.08;;;18.40;55.80;;;;;;7371421;19;20035;-65
2022/08/27 04:06:59;;;;;;;50.10;35.20;;;18.30;55.90;;;;;;7366588;19;20011;-65
2022/08/27 04:09:29;;;;;;;54.10;35.22;;;18.30;56.40;;;;;;7371054;19;20490;-66
2022/08/27 04:12:02;;;;;;;51.40;35.88;;;18.40;56.80;;;;;;7369416;19;20019;-66
2022/08/27 04:14:32;;;;;;;51.67;34.42;;;18.40;56.20;;;;;;7393221;19;20082;-66
2022/08/27 04:17:02;;;;;;;54.97;35.50;;;18.30;56.50;;;;;;7363810;19;20022;-66
2022/08/27 04:19:33;;;;;;;56.92;36.60;;;18.40;57.00;;;;;;7369707;19;20149;-66
2022/08/27 04:22:04;;;;;;;55.30;36.67;;;18.40;57.00;;;;;;7368724;19;20473;-66
2022/08/27 04:24:36;;;;;;;53.50;37.22;;;18.40;57.00;;;;;;7371968;19;20031;-66
2022/08/27 04:27:09;;;;;;;62.70;39.75;;;18.40;57.00;;;;;;7366446;19;21349;-65
2022/08/27 04:29:39;;;;;;;56.85;40.03;;;18.40;57.00;;;;;;7394563;19;20073;-65
2022/08/27 04:32:09;;;;;;;60.25;38.20;;;18.40;57.00;;;;;;7368303;19;20015;-65
2022/08/27 04:34:39;;;;;;;56.88;38.95;;;18.40;57.00;;;;;;7371329;19;20459;-66
2022/08/27 04:37:09;;;;;;;57.78;37.95;;;18.40;57.00;;;;;;7366112;19;20082;-66
2022/08/27 04:39:39;;;;;;;57.95;38.20;;;18.40;57.00;;;;;;7371102;19;20016;-66
2022/08/27 04:42:12;;;;;;;58.65;39.95;;;18.40;57.00;;;;;;7368878;19;20093;-66
2022/08/27 04:44:41;;;;;;;51.60;37.03;;;18.50;57.10;;;;;;7392552;19;20021;-66
2022/08/27 04:47:12;;;;;;;51.63;37.47;;;18.40;56.90;;;;;;7364774;19;20015;-66
2022/08/27 04:49:42;;;;;;;56.10;37.53;;;18.40;57.50;;;;;;7370440;19;20070;-66
2022/08/27 04:52:12;;;;;;;57.88;39.13;;;18.40;57.00;;;;;;7367863;19;20350;-66
2022/08/27 04:54:42;;;;;;;52.42;38.28;;;18.40;57.90;;;;;;7370582;19;20491;-66
2022/08/27 04:57:14;;;;;;;54.58;36.78;;;18.40;57.90;;;;;;7364722;19;20093;-65
2022/08/27 04:59:44;;;;;;;53.70;38.25;;;18.50;57.40;;;;;;7379186;19;20018;-66
2022/08/27 05:02:15;;;;;;;51.85;37.80;;;18.50;58.00;;;;;;7389636;19;20017;-65
2022/08/27 05:04:45;;;;;;;51.35;36.55;;;18.50;57.90;;;;;;7367292;19;20487;-65
2022/08/27 05:07:15;;;;;;;49.17;36.17;;;18.60;57.50;;;;;;7364605;19;20006;-65
2022/08/27 05:09:45;;;;;;;57.03;37.97;;;18.50;57.00;;;;;;7370624;19;21015;-65
2022/08/27 05:12:17;;;;;;;49.88;37.40;;;18.50;57.10;;;;;;7367604;19;20006;-65
2022/08/27 05:14:47;;;;;;;51.95;37.45;;;18.50;57.30;;;;;;7369900;19;20014;-66
2022/08/27 05:17:17;;;;;;;52.13;36.33;;;18.60;57.20;;;;;;7384864;19;20022;-65
2022/08/27 05:19:48;;;;;;;51.58;38.15;;;18.50;57.70;;;;;;7368240;19;20031;-65
2022/08/27 05:22:17;;;;;;;50.90;36.55;;;18.60;57.80;;;;;;7366942;19;20011;-65
2022/08/27 05:24:47;;;;;;;51.95;37.95;;;18.60;57.10;;;;;;7369913;19;19998;-65
2022/08/27 05:27:21;;;;;;;54.70;38.33;;;18.60;57.80;;;;;;7363213;19;20988;-65
2022/08/27 05:29:51;;;;;;;53.15;37.15;;;18.70;57.30;;;;;;7369622;19;20346;-66
2022/08/27 05:32:21;;;;;;;50.38;35.70;;;18.60;56.30;;;;;;7388475;19;20007;-65
2022/08/27 05:34:51;;;;;;;52.08;36.63;;;18.60;57.30;;;;;;7368451;19;20082;-65
2022/08/27 05:37:21;;;;;;;49.67;35.90;;;18.60;57.60;;;;;;7364627;19;20101;-65
2022/08/27 05:39:51;;;;;;;49.42;35.63;;;18.60;57.10;;;;;;7368722;19;20135;-66
2022/08/27 05:42:24;;;;;;;53.50;37.40;;;18.70;57.60;;;;;;7366689;19;20070;-66
2022/08/27 05:44:54;;;;;;;49.20;36.17;;;18.70;57.20;;;;;;7368727;19;20086;-66
2022/08/27 05:47:24;;;;;;;53.92;37.67;;;18.80;57.50;;;;;;7384588;19;20027;-66
2022/08/27 05:49:54;;;;;;;55.08;38.40;;;18.80;56.40;;;;;;7368933;19;20010;-66
2022/08/27 05:52:24;;;;;;;51.05;37.13;;;18.80;56.60;;;;;;7365995;19;20010;-66
2022/08/27 05:54:54;;;;;;;53.30;37.33;;;19.00;56.70;;;;;;7369283;19;20094;-66
2022/08/27 05:57:26;;;;;;;56.25;38.72;;;18.90;54.70;;;;;;7363248;19;20069;-66
2022/08/27 06:02:45;;;;;;;52.35;38.53;;;18.80;55.20;;;;;;7378765;19;20466;-65
2022/08/27 06:05:15;;;;;;;58.00;41.53;;;18.80;56.10;;;;;;7390192;19;20022;-65
2022/08/27 06:07:45;;;;;;;55.00;40.42;;;18.80;57.10;;;;;;7362992;19;20474;-65
2022/08/27 06:10:18;;;;;;;61.78;41.17;;;18.80;55.90;;;;;;7366654;19;20014;-65
2022/08/27 06:12:51;;;;;;;58.20;40.45;;;18.70;55.90;;;;;;7367908;19;20180;-66
2022/08/27 06:15:25;;;;;;;55.58;40.53;;;18.80;56.20;;;;;;7368803;19;20014;-66
2022/08/27 06:17:55;;;;;;;58.95;42.53;;;18.80;56.30;;;;;;7360477;19;20020;-66
2022/08/27 06:20:28;;;;;;;58.95;41.17;;;18.80;56.20;;;;;;7386355;19;20014;-66
2022/08/27 06:22:57;;;;;;;61.30;41.22;;;18.90;55.30;;;;;;7366948;19;20015;-66
2022/08/27 06:25:27;;;;;;;60.38;41.85;;;18.80;54.80;;;;;;7368435;19;20035;-66
2022/08/27 06:28:00;;;;;;;57.35;40.35;;;19.00;54.40;;;;;;7362800;19;20017;-66
2022/08/27 06:30:30;;;;;;;53.13;38.38;;;19.00;53.40;;;;;;7365757;19;20027;-66
2022/08/27 06:33:00;;;;;;;53.95;40.47;;;19.10;53.60;;;;;;7364682;19;20480;-66
2022/08/27 06:35:30;;;;;;;53.45;39.13;;;19.10;53.30;;;;;;7389520;19;20026;-66
2022/08/27 06:38:02;;;;;;;51.10;37.80;;;19.00;53.30;;;;;;7362565;19;20417;-66
2022/08/27 06:40:32;;;;;;;52.63;36.38;;;19.00;53.20;;;;;;7363374;19;20021;-66
2022/08/27 06:43:05;;;;;;;57.30;37.97;;;18.90;53.30;;;;;;7366205;19;20007;-66
2022/08/27 06:45:39;;;;;;;54.08;36.00;;;19.00;54.60;;;;;;7367319;19;20021;-66
2022/08/27 06:48:09;;;;;;;;;;;18.90;53.60;;;;;;7362872;19;20063;-66
2022/08/27 06:50:40;;;;;;;50.75;36.42;;;18.90;53.50;;;;;;7386354;19;19911;-66
2022/08/27 06:53:10;;;;;;;45.67;35.28;;;19.00;54.40;;;;;;7365642;19;20083;-66
2022/08/27 06:55:43;;;;;;;45.80;33.90;;;18.90;53.30;;;;;;7365830;19;20014;-65
2022/08/27 06:58:18;;;;;;;49.33;35.33;;;19.10;54.40;;;;;;7360948;19;20007;-66
2022/08/27 07:00:48;;;;;;;44.00;34.13;;;19.20;52.30;;;;;;7363892;19;20007;-66
2022/08/27 07:03:18;;;;;;;47.35;34.83;;;19.10;52.10;;;;;;7365324;19;20510;-66
2022/08/27 07:05:48;;;;;;;47.72;35.55;;;19.00;51.50;;;;;;7366674;19;20462;-65
2022/08/27 07:08:18;;;;;;;51.33;34.67;;;19.10;52.00;;;;;;7382660;19;20016;-65
2022/08/27 07:10:47;;;;;;;47.80;36.17;;;19.10;53.50;;;;;;7362708;19;20474;-66
2022/08/27 07:13:20;;;;;;;47.05;36.22;;;19.10;52.10;;;;;;7365851;19;20036;-66
2022/08/27 07:15:50;;;;;;;45.40;34.53;;;19.20;51.80;;;;;;7366276;19;20467;-66
2022/08/27 07:18:21;;;;;;;46.55;35.30;;;19.20;53.60;;;;;;7362505;19;20438;-66
2022/08/27 07:20:56;;;;;;;50.53;34.92;;;19.30;52.20;;;;;;7363004;19;20066;-66
2022/08/27 07:23:27;;;;;;;46.25;34.13;;;19.50;51.80;;;;;;7387106;19;20012;-65
2022/08/27 07:25:57;;;;;;;43.90;33.78;;;19.40;50.10;;;;;;7365549;19;20024;-66
2022/08/27 07:28:30;;;;;;;46.38;31.60;;;19.50;51.20;;;;;;7359510;19;20102;-66
2022/08/27 07:31:00;;;;;;;46.42;32.97;;;19.60;49.80;;;;;;7363194;19;20049;-66
2022/08/27 07:33:30;;;;;;;36.40;30.30;;;19.40;47.40;;;;;;7365199;19;20091;-66
2022/08/27 07:36:00;;;;;;;40.45;31.33;;;19.60;49.60;;;;;;7366071;19;20185;-66
2022/08/27 07:38:30;;;;;;;36.25;28.90;;;19.50;48.10;;;;;;7384006;19;20030;-66
2022/08/27 07:40:59;;;;;;;37.67;29.83;;;19.60;47.80;;;;;;7360809;19;20382;-66
2022/08/27 07:46:14;;;;;;;38.50;31.65;;;19.50;49.70;;;;;;7361238;19;20017;-66
2022/08/27 07:48:44;;;;;;;38.10;30.13;;;19.50;49.20;;;;;;7363832;19;20010;-66
2022/08/27 07:51:16;;;;;;;43.08;34.17;;;19.50;49.40;;;;;;7362643;19;20672;-66
2022/08/27 07:53:46;;;;;;;44.72;33.22;;;19.50;49.70;;;;;;7363445;19;20070;-68
2022/08/27 07:56:17;;;;;;;48.10;34.60;;;19.50;50.80;;;;;;7382611;19;20019;-65
2022/08/27 07:58:49;;;;;;;43.63;33.80;;;19.40;51.70;;;;;;7362997;19;20021;-65
2022/08/27 08:01:20;;;;;;;48.03;35.45;;;19.30;52.70;;;;;;7359721;19;20362;-65
2022/08/27 08:03:50;;;;;;;46.92;35.53;;;19.30;53.80;;;;;;7363481;19;20010;-65
2022/08/27 08:06:20;;;;;;;48.33;35.05;;;19.20;53.90;;;;;;7361697;19;20007;-65
2022/08/27 08:08:50;;;;;;;47.92;36.40;;;19.20;55.10;;;;;;7362638;19;20098;-66
2022/08/27 08:11:21;;;;;;;47.72;36.15;;;19.20;56.00;;;;;;7382483;19;20014;-65
2022/08/27 08:13:53;;;;;;;50.38;36.88;;;19.20;56.70;;;;;;7363730;19;20023;-66
2022/08/27 08:16:25;;;;;;;55.95;36.40;;;19.20;57.20;;;;;;7360377;19;20024;-67
2022/08/27 08:19:00;;;;;;;61.88;40.00;;;19.20;57.50;;;;;;7362862;19;20006;-65
2022/08/27 08:21:30;;;;;;;57.47;37.70;;;19.20;58.50;;;;;;7360944;19;20010;-66
2022/08/27 08:24:01;;;;;;;52.92;35.97;;;19.10;60.20;;;;;;7364001;19;20088;-66
2022/08/27 08:26:31;;;;;;;67.88;36.60;;;18.80;63.70;;;;;;7382079;19;20021;-67
2022/08/27 08:29:03;;;;;;;36.90;25.33;;;18.80;68.40;;;;;;7362579;19;20007;-67
2022/08/27 08:31:33;;;;;;;40.72;26.63;;;18.50;69.00;;;;;;7360422;19;20017;-67
2022/08/27 08:34:03;;;;;;;51.25;31.30;;;18.50;70.30;;;;;;7363055;19;20386;-67
2022/08/27 08:36:34;;;;;;;49.72;33.75;;;18.50;72.70;;;;;;7359395;19;20011;-66
2022/08/27 08:39:04;;;;;;;55.58;33.05;;;18.50;73.80;;;;;;7361416;19;20468;-67
2022/08/27 08:41:42;;;;;;;53.97;33.70;;;18.50;74.20;;;;;;7387540;19;20082;-66
2022/08/27 08:44:32;;;;;;;50.63;34.85;;;18.50;75.10;;;;;;7370384;19;20065;-67
2022/08/27 08:47:07;;;;;;;58.13;39.60;;;18.40;75.20;;;;;;7363389;19;20010;-68
2022/08/27 08:49:53;;;;;;;58.83;39.10;;;18.50;75.80;;;;;;7369578;19;20484;-67
2022/08/27 08:52:37;;;;;;;68.28;41.35;;;18.50;75.90;;;;;;7367679;19;20013;-67
2022/08/27 08:55:19;;;;;;;65.97;42.03;;;18.60;76.40;;;;;;7370843;19;20098;-69
2022/08/27 08:57:55;;;;;;;54.42;38.05;;;18.70;76.90;;;;;;7363851;19;20018;-69
2022/08/27 09:00:27;;;;;;;48.25;35.10;;;18.70;77.10;;;;;;7368412;19;20118;-68
2022/08/27 09:02:58;;;;;;;46.50;34.75;;;18.60;77.20;;;;;;7366697;19;20018;-68
2022/08/27 09:05:29;;;;;;;55.33;36.03;;;18.60;77.00;;;;;;7392658;19;20530;-68
2022/08/27 09:08:09;;;;;;;52.63;37.53;;;18.60;77.10;;;;;;7365399;19;20118;-68
2022/08/27 09:11:06;;;;;;;56.25;38.67;;;18.60;77.40;;;;;;7367667;19;20530;-68
2022/08/27 09:13:41;;;;;;;60.00;40.08;;;18.60;77.50;;;;;;7368255;19;20470;-67
2022/08/27 09:16:13;;;;;;;69.43;40.10;;;18.70;77.50;;;;;;7367092;19;20015;-67
2022/08/27 09:18:44;;;;;;;61.47;41.35;;;18.70;77.60;;;;;;7368610;19;20034;-68
2022/08/27 09:21:32;;;;;;;63.20;40.00;;;18.80;77.80;;;;;;7367770;19;20006;-68
2022/08/27 09:24:09;;;;;;;59.47;39.70;;;18.70;77.80;;;;;;7369069;19;20013;-67
2022/08/27 09:26:41;;;;;;;63.95;40.42;;;18.70;77.60;;;;;;7387186;19;20011;-69
2022/08/27 09:29:18;;;;;;;64.20;41.10;;;18.70;78.00;;;;;;7367936;19;20007;-68
2022/08/27 09:31:58;;;;;;;63.45;38.97;;;18.70;77.90;;;;;;7365821;19;20011;-69
2022/08/27 09:34:35;;;;;;;56.25;39.78;;;18.60;78.00;;;;;;7369104;19;20014;-68
2022/08/27 09:37:09;;;;;;;59.80;41.40;;;18.60;78.00;;;;;;7363275;19;20085;-68
2022/08/27 09:39:48;;;;;;;56.50;39.17;;;18.70;78.10;;;;;;7369041;19;20014;-68
2022/08/27 09:42:31;;;;;;;56.08;38.67;;;18.70;78.20;;;;;;7365611;19;20017;-68
2022/08/27 09:45:01;;;;;;;64.47;42.25;;;18.80;78.20;;;;;;7369704;19;20096;-68
2022/08/27 09:47:43;;;;;;;66.63;42.13;;;18.90;78.50;;;;;;7382461;19;20015;-68
2022/08/27 09:50:14;;;;;;;56.70;37.65;;;18.90;78.70;;;;;;7366484;19;20007;-67
2022/08/27 09:52:54;;;;;;;59.45;39.63;;;18.80;78.50;;;;;;7365373;19;20038;-68
2022/08/27 09:55:31;;;;;;;58.45;40.13;;;18.90;78.50;;;;;;7369218;19;20074;-68
2022/08/27 09:58:04;;;;;;;52.28;37.60;;;19.00;78.80;;;;;;7363967;19;20094;-68
2022/08/27 10:00:39;;;;;;;53.03;38.42;;;18.90;79.00;;;;;;7365640;19;20082;-68
2022/08/27 10:03:13;;;;;;;56.28;39.45;;;19.10;79.20;;;;;;7365864;19;20086;-69
2022/08/27 10:05:49;;;;;;;68.47;47.50;;;19.10;79.40;;;;;;7389893;19;20500;-68
2022/08/27 10:08:27;;;;;;;58.00;39.67;;;19.10;78.70;;;;;;7363466;19;20501;-67
2022/08/27 10:11:03;;;;;;;53.58;38.72;;;19.20;78.60;;;;;;7365065;19;20026;-67
2022/08/27 10:13:42;;;;;;;55.30;40.08;;;19.30;78.90;;;;;;7366545;19;20525;-69
2022/08/27 10:16:27;;;;;;;51.35;36.53;;;19.20;75.90;;;;;;7364906;19;20021;-69
2022/08/27 10:19:11;;;;;;;46.85;35.47;;;19.40;76.00;;;;;;7365728;19;20018;-70
2022/08/27 10:21:48;;;;;;;47.88;35.35;;;19.40;73.50;;;;;;7365868;19;20006;-69
2022/08/27 10:24:29;;;;;;;47.58;34.58;;;19.60;74.00;;;;;;7367430;19;20066;-68
2022/08/27 10:27:11;;;;;;;47.50;35.53;;;19.60;70.50;;;;;;7361915;19;20010;-68
2022/08/27 10:29:50;;;;;;;46.60;34.00;;;19.70;70.80;;;;;;7389873;19;20023;-68
2022/08/27 10:32:36;;;;;;;47.40;33.60;;;19.60;66.10;;;;;;7364046;19;20082;-68
2022/08/27 10:35:15;;;;;;;46.00;34.55;;;19.60;68.20;;;;;;7366990;19;20082;-68
2022/08/27 10:37:58;;;;;;;47.92;33.90;;;19.70;69.50;;;;;;7361120;19;20019;-68
2022/08/27 10:40:34;;;;;;;46.35;33.28;;;19.70;67.20;;;;;;7364029;19;20403;-67
2022/08/27 10:43:17;;;;;;;47.10;33.63;;;19.70;65.90;;;;;;7363772;19;20002;-68
2022/08/27 10:45:54;;;;;;;45.95;33.53;;;19.60;62.20;;;;;;7365437;19;20086;-68
2022/08/27 10:48:32;;;;;;;42.10;33.08;;;19.90;67.20;;;;;;7362760;19;20006;-67
2022/08/27 10:51:11;;;;;;;47.83;35.53;;;19.90;64.60;;;;;;7365206;19;20078;-68
2022/08/27 10:53:50;;;;;;;49.92;37.75;;;19.90;63.40;;;;;;7387448;19;20011;-67
2022/08/27 10:56:28;;;;;;;45.45;31.38;;;19.90;62.50;;;;;;7363244;19;20011;-67
2022/08/27 10:59:07;;;;;;;42.50;33.08;;;19.80;58.60;;;;;;7364762;19;20007;-67
2022/08/27 11:01:46;;;;;;;41.75;33.33;;;20.00;61.80;;;;;;7363527;19;20738;-67
2022/08/27 11:04:21;;;;;;;46.10;34.20;;;20.00;62.20;;;;;;7365958;19;20038;-67
2022/08/27 11:07:00;;;;;;;46.65;34.03;;;20.00;58.90;;;;;;7363061;19;20014;-66
2022/08/27 11:09:38;;;;;;;42.17;33.22;;;20.00;60.20;;;;;;7366293;19;20015;-68
2022/08/27 11:12:11;;;;;;;43.70;34.72;;;20.20;63.10;;;;;;7362914;19;20025;-67
2022/08/27 11:14:51;;;;;;;41.75;32.45;;;20.10;58.70;;;;;;7382651;19;20010;-68
2022/08/27 11:17:27;;;;;;;49.33;35.88;;;20.10;59.50;;;;;;7381855;19;20028;-68
2022/08/27 11:20:06;;;;;;;45.97;33.45;;;20.30;62.40;;;;;;7365235;19;20015;-67
2022/08/27 11:22:43;;;;;;;39.67;31.27;;;20.30;56.80;;;;;;7364520;19;20007;-68
2022/08/27 11:25:28;;;;;;;39.90;31.55;;;20.40;55.20;;;;;;7365391;19;20013;-67
2022/08/27 11:27:59;;;;;;;36.38;30.52;;;20.60;54.60;;;;;;7361099;19;20018;-68
2022/08/27 11:30:37;;;;;;;39.45;30.27;;;20.40;50.10;;;;;;7362960;19;20098;-68
2022/08/27 11:33:16;;;;;;;38.17;29.83;;;20.50;51.90;;;;;;7364825;19;20024;-68
2022/08/27 11:36:00;;;;;;;41.17;32.22;;;20.50;51.00;;;;;;7365223;19;20010;-68
2022/08/27 11:38:47;;;;;;;48.00;38.95;;;20.60;52.50;;;;;;7382708;19;20021;-67
2022/08/27 11:41:36;;;;;;;38.80;30.27;;;20.70;53.40;;;;;;7362569;19;20006;-67
2022/08/27 11:44:15;;;;;;;40.63;30.98;;;20.60;50.90;;;;;;7362497;19;20003;-67
2022/08/27 11:46:47;;;;;;;40.10;30.38;;;20.50;50.50;;;;;;7361042;19;20773;-69
2022/08/27 11:49:27;;;;;;;41.15;32.55;;;20.50;49.30;;;;;;7363848;19;20102;-68
2022/08/27 11:52:01;;;;;;;37.35;32.33;;;20.50;50.10;;;;;;7361950;19;20018;-67
2022/08/27 11:54:45;;;;;;;46.60;32.05;;;20.60;53.10;;;;;;7365125;19;20078;-68
2022/08/27 11:57:28;;;;;;;38.30;30.05;;;20.60;54.40;;;;;;7359613;19;20014;-68
2022/08/27 11:59:59;;;;;;;40.83;32.28;;;20.50;50.40;;;;;;7365116;19;20014;-67
2022/08/27 12:02:31;;;;;;;38.88;31.60;;;20.70;53.30;;;;;;7384751;19;20010;-68
2022/08/27 12:05:13;;;;;;;40.83;32.15;;;20.60;50.70;;;;;;7363832;19;20023;-67
2022/08/27 12:07:46;;;;;;;43.05;33.03;;;20.60;54.80;;;;;;7359204;19;20017;-68
2022/08/27 12:10:40;;;;;;;43.97;32.42;;;20.60;53.50;;;;;;7362246;19;20090;-68
2022/08/27 12:13:23;;;;;;;42.75;32.58;;;20.60;51.10;;;;;;7363529;19;20062;-67
2022/08/27 12:16:11;;;;;;;41.85;33.28;;;20.60;51.30;;;;;;7365787;19;20010;-67
2022/08/27 12:18:53;;;;;;;38.88;31.88;;;20.70;52.30;;;;;;7370237;19;20077;-68
2022/08/27 12:21:31;;;;;;;41.60;32.78;;;20.90;52.30;;;;;;7370283;19;20010;-68
2022/08/27 12:24:15;;;;;;;38.95;31.50;;;21.20;53.30;;;;;;7368115;19;20017;-68
2022/08/27 12:26:57;;;;;;;38.30;30.90;;;21.10;48.10;;;;;;7367186;19;20014;-67
2022/08/27 12:29:39;;;;;;;39.30;31.45;;;21.10;47.80;;;;;;7391338;19;20010;-67
2022/08/27 12:32:27;;;;;;;34.97;29.70;;;21.20;49.10;;;;;;7368220;19;20022;-66
2022/08/27 12:35:04;;;;;;;38.55;30.25;;;21.20;49.00;;;;;;7368417;19;20014;-68
2022/08/27 12:37:37;;;;;;;37.17;31.23;;;21.20;47.00;;;;;;7365251;19;20015;-67
2022/08/27 12:40:15;;;;;;;37.03;28.40;;;21.30;46.40;;;;;;7369296;19;20023;-67
2022/08/27 12:42:52;;;;;;;35.88;29.15;;;21.40;47.20;;;;;;7369197;19;20030;-67
2022/08/27 12:45:24;;;;;;;37.53;30.23;;;21.40;45.20;;;;;;7371284;19;20036;-66
2022/08/27 12:47:56;;;;;;;40.80;29.85;;;21.40;44.00;;;;;;7362709;19;20735;-67
2022/08/27 12:50:30;;;;;;;35.33;28.92;;;21.40;45.40;;;;;;7389456;19;20570;-67
2022/08/27 12:53:23;;;;;;;37.72;28.73;;;21.40;40.80;;;;;;7368329;19;20476;-67
2022/08/27 12:56:11;;;;;;;37.90;29.50;;;21.30;38.90;;;;;;7370209;19;20058;-67
2022/08/27 12:58:52;;;;;;;33.13;27.88;;;21.40;42.80;;;;;;7367845;19;20098;-66
2022/08/27 13:01:37;;;;;;;36.50;25.00;;;21.40;39.30;;;;;;7367879;19;20009;-68
2022/08/27 13:04:22;;;;;;;32.17;27.02;;;21.30;37.40;;;;;;7366404;19;20078;-68
2022/08/27 13:06:52;;;;;;;28.73;24.70;;;21.40;40.00;;;;;;7365894;19;20561;-67
2022/08/27 13:09:28;;;;;;;36.13;27.67;;;21.60;36.10;;;;;;7368608;19;20043;-67